Time;durP1;ratioP1;P1;durP2;ratioP2;P2;SDS_P1;SDS_P2;PMS_P1;PMS_P2;Temp;Humidity;BMP_temperature;BMP_pressure;BME280_temperature;BME280_humidity;BME280_pressure;Samples;Min_cycle;Max_cycle;Signal;HPM_P1;HPM_P2
2021/12/28 00:01:24;;;;;;;;;0.00;0.00;;;;;;;;5051259;27;8824;-83
2021/12/28 00:03:50;;;;;;;;;0.00;0.00;;;;;;;;5051730;28;8788;-81
2021/12/28 00:06:16;;;;;;;;;0.00;0.00;;;;;;;;5050938;27;8824;-82
2021/12/28 00:08:42;;;;;;;;;0.00;0.00;;;;;;;;5051447;28;8808;-81
2021/12/28 00:11:08;;;;;;;;;0.00;0.00;;;;;;;;5051610;27;8916;-81
2021/12/28 00:13:34;;;;;;;;;0.00;0.00;;;;;;;;5051471;28;8785;-81
2021/12/28 00:18:31;;;;;;;;;0.00;0.00;;;;;;;;5051302;27;8720;-81
2021/12/28 00:20:58;;;;;;;;;0.00;0.00;;;;;;;;5050752;28;9528;-81
2021/12/28 00:23:35;;;;;;;;;0.00;0.00;;;;;;;;5051488;27;8831;-81
2021/12/28 00:26:01;;;;;;;;;0.00;0.00;;;;;;;;5051138;28;8811;-81
2021/12/28 00:28:26;;;;;;;;;0.00;0.00;;;;;;;;5051247;27;8842;-81
2021/12/28 00:30:52;;;;;;;;;0.00;0.00;;;;;;;;5051084;28;8842;-81
2021/12/28 00:33:18;;;;;;;;;0.00;0.00;;;;;;;;5049915;27;8844;-81
2021/12/28 00:35:44;;;;;;;;;0.00;0.00;;;;;;;;5050359;27;8780;-81
2021/12/28 00:38:14;;;;;;;;;0.00;0.00;;;;;;;;5051441;28;8826;-81
2021/12/28 00:40:40;;;;;;;;;0.00;0.00;;;;;;;;5050639;27;8830;-80
2021/12/28 00:43:05;;;;;;;;;0.00;0.00;;;;;;;;5058520;27;9675;-80
2021/12/28 00:45:30;;;;;;;;;0.00;0.00;;;;;;;;5057750;27;8804;-80
2021/12/28 00:47:56;;;;;;;;;0.00;0.00;;;;;;;;5050978;28;8846;-80
2021/12/28 00:50:22;;;;;;;;;0.00;0.00;;;;;;;;5050575;28;8816;-80
2021/12/28 00:52:48;;;;;;;;;0.00;0.00;;;;;;;;5086154;27;8792;-80
2021/12/28 00:55:14;;;;;;;;;0.00;0.00;;;;;;;;5050609;27;8857;-80
2021/12/28 00:57:39;;;;;;;;;0.00;0.00;;;;;;;;5050493;27;8784;-80
2021/12/28 01:00:07;;;;;;;;;0.00;0.00;;;;;;;;5050794;27;8839;-80
2021/12/28 01:02:33;;;;;;;;;0.00;0.00;;;;;;;;5050784;28;8800;-80
2021/12/28 01:04:58;;;;;;;;;0.00;0.00;;;;;;;;5049984;27;8829;-80
2021/12/28 01:07:24;;;;;;;;;0.00;0.00;;;;;;;;5050778;27;8889;-80
2021/12/28 01:09:49;;;;;;;;;0.00;0.00;;;;;;;;5050312;27;8818;-80
2021/12/28 01:12:14;;;;;;;;;0.00;0.00;;;;;;;;5050813;28;8888;-80
2021/12/28 01:14:40;;;;;;;;;0.00;0.00;;;;;;;;5050125;27;8846;-80
2021/12/28 01:17:06;;;;;;;;;0.00;0.00;;;;;;;;5049234;28;8982;-81
2021/12/28 01:19:31;;;;;;;;;0.00;0.00;;;;;;;;5050440;27;8788;-80
2021/12/28 01:21:57;;;;;;;;;0.00;0.00;;;;;;;;5049941;27;8916;-81
2021/12/28 01:24:23;;;;;;;;;0.00;0.00;;;;;;;;5068497;28;8806;-80
2021/12/28 01:26:49;;;;;;;;;0.00;0.00;;;;;;;;5070331;27;8742;-80
2021/12/28 01:29:14;;;;;;;;;0.00;0.00;;;;;;;;5070472;28;8833;-80
2021/12/28 01:31:40;;;;;;;;;0.00;0.00;;;;;;;;5070262;27;8928;-80
2021/12/28 01:34:06;;;;;;;;;0.00;0.00;;;;;;;;5070400;28;8914;-80
2021/12/28 01:36:31;;;;;;;;;0.00;0.00;;;;;;;;5070016;27;8794;-80
2021/12/28 01:38:57;;;;;;;;;0.00;0.00;;;;;;;;5068481;27;8825;-80
2021/12/28 01:41:22;;;;;;;;;0.00;0.00;;;;;;;;5070376;28;8855;-80
2021/12/28 01:43:54;;;;;;;;;0.00;0.00;;;;;;;;5081459;27;8838;-80
2021/12/28 01:46:19;;;;;;;;;0.00;0.00;;;;;;;;5050231;27;9825;-80
2021/12/28 01:48:44;;;;;;;;;0.00;0.00;;;;;;;;5049886;27;8918;-80
2021/12/28 01:51:11;;;;;;;;;0.00;0.00;;;;;;;;5076314;27;9025;-80
2021/12/28 01:53:37;;;;;;;;;0.00;0.00;;;;;;;;5059075;27;8804;-80
2021/12/28 01:56:04;;;;;;;;;0.00;0.00;;;;;;;;5049759;27;8911;-80
2021/12/28 01:58:29;;;;;;;;;0.00;0.00;;;;;;;;5052715;28;8783;-80
2021/12/28 02:00:55;;;;;;;;;0.00;0.00;;;;;;;;5052651;27;9559;-80
2021/12/28 02:03:22;;;;;;;;;0.00;0.00;;;;;;;;5052962;28;9630;-80
2021/12/28 02:05:48;;;;;;;;;0.00;0.00;;;;;;;;5052454;27;8791;-80
2021/12/28 02:08:14;;;;;;;;;0.00;0.00;;;;;;;;5052889;27;8808;-80
2021/12/28 02:10:41;;;;;;;;;0.00;0.00;;;;;;;;5052890;27;8838;-81
2021/12/28 02:13:07;;;;;;;;;0.00;0.00;;;;;;;;5051439;28;8854;-80
2021/12/28 02:15:33;;;;;;;;;0.00;0.00;;;;;;;;5053056;27;8812;-80
2021/12/28 02:17:58;;;;;;;;;0.00;0.00;;;;;;;;5052521;28;8796;-80
2021/12/28 02:20:24;;;;;;;;;0.00;0.00;;;;;;;;5052597;27;8792;-80
2021/12/28 02:22:49;;;;;;;;;0.00;0.00;;;;;;;;5052790;28;8806;-80
2021/12/28 02:25:16;;;;;;;;;0.00;0.00;;;;;;;;5051348;27;9546;-81
2021/12/28 02:27:41;;;;;;;;;0.00;0.00;;;;;;;;5052547;27;8815;-81
2021/12/28 02:30:08;;;;;;;;;0.00;0.00;;;;;;;;5052935;28;8784;-81
2021/12/28 02:32:34;;;;;;;;;0.00;0.00;;;;;;;;5052606;27;8899;-81
2021/12/28 02:34:59;;;;;;;;;0.00;0.00;;;;;;;;5052195;28;8910;-81
2021/12/28 02:37:25;;;;;;;;;0.00;0.00;;;;;;;;5052701;27;9589;-81
2021/12/28 02:39:50;;;;;;;;;0.00;0.00;;;;;;;;5052534;28;9072;-81
2021/12/28 02:42:17;;;;;;;;;0.00;0.00;;;;;;;;5050978;27;8868;-81
2021/12/28 02:44:43;;;;;;;;;0.00;0.00;;;;;;;;5052546;27;8798;-81
2021/12/28 02:47:08;;;;;;;;;0.00;0.00;;;;;;;;5052489;27;8800;-81
2021/12/28 02:49:36;;;;;;;;;0.00;0.00;;;;;;;;5052443;28;8819;-81
2021/12/28 02:52:01;;;;;;;;;0.00;0.00;;;;;;;;5087518;27;8842;-81
2021/12/28 02:54:26;;;;;;;;;0.00;0.00;;;;;;;;5052572;28;8824;-81
2021/12/28 02:56:51;;;;;;;;;0.00;0.00;;;;;;;;5052365;28;8793;-80
2021/12/28 02:59:17;;;;;;;;;0.00;0.00;;;;;;;;5052379;27;9043;-80
2021/12/28 03:01:42;;;;;;;;;0.00;0.00;;;;;;;;5052092;28;8908;-81
2021/12/28 03:04:08;;;;;;;;;0.00;0.00;;;;;;;;5052577;27;8828;-81
2021/12/28 03:06:34;;;;;;;;;0.00;0.00;;;;;;;;5051879;28;8793;-81
2021/12/28 03:09:02;;;;;;;;;0.00;0.00;;;;;;;;5051610;27;8781;-81
2021/12/28 03:11:28;;;;;;;;;0.00;0.00;;;;;;;;5050839;28;8816;-81
2021/12/28 03:13:55;;;;;;;;;0.00;0.00;;;;;;;;5052161;27;8797;-80
2021/12/28 03:16:21;;;;;;;;;0.00;0.00;;;;;;;;5052180;28;8822;-81
2021/12/28 03:18:46;;;;;;;;;0.00;0.00;;;;;;;;5052219;27;8764;-81
2021/12/28 03:21:13;;;;;;;;;0.00;0.00;;;;;;;;5050233;28;8870;-81
2021/12/28 03:23:38;;;;;;;;;0.00;0.00;;;;;;;;5052454;27;8784;-81
2021/12/28 03:26:04;;;;;;;;;0.00;0.00;;;;;;;;5052311;28;8793;-81
2021/12/28 03:28:32;;;;;;;;;0.00;0.00;;;;;;;;5052134;27;8811;-81
2021/12/28 03:31:00;;;;;;;;;0.00;0.00;;;;;;;;5052029;28;8808;-81
2021/12/28 03:33:27;;;;;;;;;0.00;0.00;;;;;;;;5050711;27;8830;-81
2021/12/28 03:35:52;;;;;;;;;0.00;0.00;;;;;;;;5051479;28;9756;-81
2021/12/28 03:38:18;;;;;;;;;0.00;0.00;;;;;;;;5052041;27;8815;-81
2021/12/28 03:40:44;;;;;;;;;0.00;0.00;;;;;;;;5051699;28;9575;-81
2021/12/28 03:43:09;;;;;;;;;0.00;0.00;;;;;;;;5060895;27;8820;-81
2021/12/28 03:45:34;;;;;;;;;0.00;0.00;;;;;;;;5058117;27;9614;-81
2021/12/28 03:48:00;;;;;;;;;0.00;0.00;;;;;;;;5051925;27;8804;-81
2021/12/28 03:50:25;;;;;;;;;0.00;0.00;;;;;;;;5050003;28;8909;-81
2021/12/28 03:52:54;;;;;;;;;0.00;0.00;;;;;;;;5087626;27;9545;-81
2021/12/28 03:55:21;;;;;;;;;0.00;0.00;;;;;;;;5051671;28;8769;-81
2021/12/28 03:57:46;;;;;;;;;0.00;0.00;;;;;;;;5051709;27;8851;-81
2021/12/28 04:00:13;;;;;;;;;0.00;0.00;;;;;;;;5051828;28;8811;-81
2021/12/28 04:02:39;;;;;;;;;0.00;0.00;;;;;;;;5051458;27;8798;-81
2021/12/28 04:05:05;;;;;;;;;0.00;0.00;;;;;;;;5051359;27;8887;-81
2021/12/28 04:07:30;;;;;;;;;0.00;0.00;;;;;;;;5051670;27;8982;-81
2021/12/28 04:12:22;;;;;;;;;0.00;0.00;;;;;;;;5051685;28;8812;-81
2021/12/28 04:14:47;;;;;;;;;0.00;0.00;;;;;;;;5051402;27;8788;-81
2021/12/28 04:17:13;;;;;;;;;0.00;0.00;;;;;;;;5050180;28;8808;-81
2021/12/28 04:19:38;;;;;;;;;0.00;0.00;;;;;;;;5050817;27;8828;-81
2021/12/28 04:22:04;;;;;;;;;0.00;0.00;;;;;;;;5050361;28;8815;-81
2021/12/28 04:24:29;;;;;;;;;0.00;0.00;;;;;;;;5051193;27;8832;-81
2021/12/28 04:26:54;;;;;;;;;0.00;0.00;;;;;;;;5051432;28;8810;-81
2021/12/28 04:29:20;;;;;;;;;0.00;0.00;;;;;;;;5051215;27;8824;-81
2021/12/28 04:31:45;;;;;;;;;0.00;0.00;;;;;;;;5051202;28;8824;-81
2021/12/28 04:34:10;;;;;;;;;0.00;0.00;;;;;;;;5051235;27;8809;-81
2021/12/28 04:36:36;;;;;;;;;0.00;0.00;;;;;;;;5051022;28;8808;-81
2021/12/28 04:39:02;;;;;;;;;0.00;0.00;;;;;;;;5051053;27;8911;-81
2021/12/28 04:41:28;;;;;;;;;0.00;0.00;;;;;;;;5051213;28;9669;-81
2021/12/28 04:43:53;;;;;;;;;0.00;0.00;;;;;;;;5064578;27;8813;-80
2021/12/28 04:46:18;;;;;;;;;0.00;0.00;;;;;;;;5051275;28;8788;-81
2021/12/28 04:48:44;;;;;;;;;0.00;0.00;;;;;;;;5049348;27;8858;-81
2021/12/28 04:51:09;;;;;;;;;0.00;0.00;;;;;;;;5077113;27;8978;-81
2021/12/28 04:53:35;;;;;;;;;0.00;0.00;;;;;;;;5059946;27;8808;-81
2021/12/28 04:56:00;;;;;;;;;0.00;0.00;;;;;;;;5049552;27;8819;-81
2021/12/28 04:58:25;;;;;;;;;0.00;0.00;;;;;;;;5049612;28;8823;-81
2021/12/28 05:00:52;;;;;;;;;0.00;0.00;;;;;;;;5050637;27;9535;-81
2021/12/28 05:03:17;;;;;;;;;0.00;0.00;;;;;;;;5050916;28;8799;-81
2021/12/28 05:05:45;;;;;;;;;0.00;0.00;;;;;;;;5048853;27;8784;-81
2021/12/28 05:08:11;;;;;;;;;0.00;0.00;;;;;;;;5050924;28;8884;-81
2021/12/28 05:10:37;;;;;;;;;0.00;0.00;;;;;;;;5051030;27;8776;-81
2021/12/28 05:13:02;;;;;;;;;0.00;0.00;;;;;;;;5050584;27;8812;-81
2021/12/28 05:15:28;;;;;;;;;0.00;0.00;;;;;;;;5051006;28;8801;-81
2021/12/28 05:17:54;;;;;;;;;0.00;0.00;;;;;;;;5048941;27;8939;-81
2021/12/28 05:20:19;;;;;;;;;0.00;0.00;;;;;;;;5050391;28;8895;-81
2021/12/28 05:22:44;;;;;;;;;0.00;0.00;;;;;;;;5050395;27;8800;-81
2021/12/28 05:25:10;;;;;;;;;0.00;0.00;;;;;;;;5049494;28;8904;-81
2021/12/28 05:27:35;;;;;;;;;0.00;0.00;;;;;;;;5049279;27;8862;-79
2021/12/28 05:30:01;;;;;;;;;0.00;0.00;;;;;;;;5050342;28;8823;-81
2021/12/28 05:32:26;;;;;;;;;0.00;0.00;;;;;;;;5051876;27;9663;-81
2021/12/28 05:34:51;;;;;;;;;0.00;0.00;;;;;;;;5051554;28;8896;-81
2021/12/28 05:37:17;;;;;;;;;0.00;0.00;;;;;;;;5053436;27;8850;-81
2021/12/28 05:39:43;;;;;;;;;0.00;0.00;;;;;;;;5053527;28;8909;-81
2021/12/28 05:42:08;;;;;;;;;0.00;0.00;;;;;;;;5051855;27;8840;-80
2021/12/28 05:44:33;;;;;;;;;0.00;0.00;;;;;;;;5070737;27;8812;-81
2021/12/28 05:46:59;;;;;;;;;0.00;0.00;;;;;;;;5051679;28;9755;-80
2021/12/28 05:49:25;;;;;;;;;0.00;0.00;;;;;;;;5051714;27;8851;-80
2021/12/28 05:51:50;;;;;;;;;0.00;0.00;;;;;;;;5092547;27;8823;-80
2021/12/28 05:54:17;;;;;;;;;0.00;0.00;;;;;;;;5053523;28;8804;-80
2021/12/28 05:56:43;;;;;;;;;0.00;0.00;;;;;;;;5052999;27;8772;-81
2021/12/28 05:59:08;;;;;;;;;0.00;0.00;;;;;;;;5051740;28;8838;-80
2021/12/28 06:01:33;;;;;;;;;0.00;0.00;;;;;;;;5053005;27;8838;-80
2021/12/28 06:03:59;;;;;;;;;0.00;0.00;;;;;;;;5052982;28;8812;-80
2021/12/28 06:06:24;;;;;;;;;0.00;0.00;;;;;;;;5051348;27;9820;-81
2021/12/28 06:08:51;;;;;;;;;0.00;0.00;;;;;;;;5053104;28;8812;-80
2021/12/28 06:11:17;;;;;;;;;0.00;0.00;;;;;;;;5053047;28;8895;-80
2021/12/28 06:13:42;;;;;;;;;0.00;0.00;;;;;;;;5052910;27;8815;-80
2021/12/28 06:16:08;;;;;;;;;0.00;0.00;;;;;;;;5052947;28;9599;-81
2021/12/28 06:18:33;;;;;;;;;0.00;0.00;;;;;;;;5053033;27;8784;-80
2021/12/28 06:20:59;;;;;;;;;0.00;0.00;;;;;;;;5052149;28;8858;-80
2021/12/28 06:23:24;;;;;;;;;0.00;0.00;;;;;;;;5053055;27;8807;-80
2021/12/28 06:25:50;;;;;;;;;0.00;0.00;;;;;;;;5052775;28;8800;-81
2021/12/28 06:28:15;;;;;;;;;0.00;0.00;;;;;;;;5051421;27;8824;-80
2021/12/28 06:30:40;;;;;;;;;0.00;0.00;;;;;;;;5051358;28;8862;-81
2021/12/28 06:33:06;;;;;;;;;0.00;0.00;;;;;;;;5052877;27;8824;-80
2021/12/28 06:35:31;;;;;;;;;0.00;0.00;;;;;;;;5052580;28;8942;-80
2021/12/28 06:37:57;;;;;;;;;0.00;0.00;;;;;;;;5052654;28;9646;-80
2021/12/28 06:40:22;;;;;;;;;0.00;0.00;;;;;;;;5051024;27;8816;-80
2021/12/28 06:42:48;;;;;;;;;0.00;0.00;;;;;;;;5052519;28;8792;-81
2021/12/28 06:45:13;;;;;;;;;0.00;0.00;;;;;;;;5068920;27;8808;-81
2021/12/28 06:47:39;;;;;;;;;0.00;0.00;;;;;;;;5052720;28;9589;-81
2021/12/28 06:50:04;;;;;;;;;0.00;0.00;;;;;;;;5052023;27;8830;-81
2021/12/28 06:52:30;;;;;;;;;0.00;0.00;;;;;;;;5092248;27;8789;-80
2021/12/28 06:54:55;;;;;;;;;0.00;0.00;;;;;;;;5051062;27;9091;-81
2021/12/28 06:57:22;;;;;;;;;0.00;0.00;;;;;;;;5052585;28;8797;-81
2021/12/28 06:59:47;;;;;;;;;0.00;0.00;;;;;;;;5052286;27;9734;-80
2021/12/28 07:02:13;;;;;;;;;0.00;0.00;;;;;;;;5052492;28;8878;-80
2021/12/28 07:04:39;;;;;;;;;0.00;0.00;;;;;;;;5052212;27;9223;-80
2021/12/28 07:07:05;;;;;;;;;0.00;0.00;;;;;;;;5052336;27;9026;-81
2021/12/28 07:09:30;;;;;;;;;0.00;0.00;;;;;;;;5052390;27;9698;-80
2021/12/28 07:11:56;;;;;;;;;0.00;0.00;;;;;;;;5050808;28;8867;-81
2021/12/28 07:14:21;;;;;;;;;0.00;0.00;;;;;;;;5052326;28;8796;-81
2021/12/28 07:16:47;;;;;;;;;0.00;0.00;;;;;;;;5052233;28;8820;-80
2021/12/28 07:19:12;;;;;;;;;0.00;0.00;;;;;;;;5052066;27;9599;-81
2021/12/28 07:21:38;;;;;;;;;0.00;0.00;;;;;;;;5052140;27;8819;-81
2021/12/28 07:24:04;;;;;;;;;0.00;0.00;;;;;;;;5050696;27;8815;-81
2021/12/28 07:26:30;;;;;;;;;0.00;0.00;;;;;;;;5052280;28;8796;-80
2021/12/28 07:28:55;;;;;;;;;0.00;0.00;;;;;;;;5052065;27;8914;-81
2021/12/28 07:31:20;;;;;;;;;0.00;0.00;;;;;;;;5050502;28;8812;-80
2021/12/28 07:33:46;;;;;;;;;0.00;0.00;;;;;;;;5050487;27;8908;-80
2021/12/28 07:36:11;;;;;;;;;0.00;0.00;;;;;;;;5051979;28;8979;-81
2021/12/28 07:38:36;;;;;;;;;0.00;0.00;;;;;;;;5052014;27;8824;-81
2021/12/28 07:41:02;;;;;;;;;0.00;0.00;;;;;;;;5051941;27;9655;-81
2021/12/28 07:43:28;;;;;;;;;0.00;0.00;;;;;;;;5070085;27;8898;-81
2021/12/28 07:45:53;;;;;;;;;0.00;0.00;;;;;;;;5052096;28;8796;-80
2021/12/28 07:48:18;;;;;;;;;0.00;0.00;;;;;;;;5051729;27;9528;-81
2021/12/28 07:50:44;;;;;;;;;0.00;0.00;;;;;;;;5059259;27;8819;-81
2021/12/28 07:53:09;;;;;;;;;0.00;0.00;;;;;;;;5084575;27;8839;-81
2021/12/28 07:55:34;;;;;;;;;0.00;0.00;;;;;;;;5051652;28;8850;-81
2021/12/28 07:58:00;;;;;;;;;0.00;0.00;;;;;;;;5051788;28;8843;-81
2021/12/28 08:00:25;;;;;;;;;0.00;0.00;;;;;;;;5051646;27;8796;-81
2021/12/28 08:02:51;;;;;;;;;0.00;0.00;;;;;;;;5051575;28;8810;-81
2021/12/28 08:05:17;;;;;;;;;0.00;0.00;;;;;;;;5051300;27;8816;-81
2021/12/28 08:07:42;;;;;;;;;0.00;0.00;;;;;;;;5050095;27;8858;-81
2021/12/28 08:10:09;;;;;;;;;0.00;0.00;;;;;;;;5051949;27;8860;-81
2021/12/28 08:12:35;;;;;;;;;0.00;0.00;;;;;;;;5051463;27;8792;-81
2021/12/28 08:15:03;;;;;;;;;0.00;0.00;;;;;;;;5051547;27;8818;-81
2021/12/28 08:17:29;;;;;;;;;0.00;0.00;;;;;;;;5051538;28;8780;-80
2021/12/28 08:19:54;;;;;;;;;0.00;0.00;;;;;;;;5051154;27;8776;-81
2021/12/28 08:22:19;;;;;;;;;0.00;0.00;;;;;;;;5051473;28;8843;-81
2021/12/28 08:24:45;;;;;;;;;0.00;0.00;;;;;;;;5049856;27;8816;-81
2021/12/28 08:27:10;;;;;;;;;0.00;0.00;;;;;;;;5051730;28;9013;-81
2021/12/28 08:29:35;;;;;;;;;0.00;0.00;;;;;;;;5049991;27;8843;-80
2021/12/28 08:32:02;;;;;;;;;0.00;0.00;;;;;;;;5051175;27;8827;-81
2021/12/28 08:34:27;;;;;;;;;0.00;0.00;;;;;;;;5051230;28;8740;-81
2021/12/28 08:36:52;;;;;;;;;0.00;0.00;;;;;;;;5050970;27;10278;-81
2021/12/28 08:39:18;;;;;;;;;0.00;0.00;;;;;;;;5050076;28;8930;-80
2021/12/28 08:41:43;;;;;;;;;0.00;0.00;;;;;;;;5050853;27;8904;-80
2021/12/28 08:44:08;;;;;;;;;0.00;0.00;;;;;;;;5070423;27;8820;-81
2021/12/28 08:46:34;;;;;;;;;0.00;0.00;;;;;;;;5049765;27;9512;-80
2021/12/28 08:48:59;;;;;;;;;0.00;0.00;;;;;;;;5050920;28;8804;-80
2021/12/28 08:51:24;;;;;;;;;0.00;0.00;;;;;;;;5087897;27;8901;-81
2021/12/28 08:53:49;;;;;;;;;0.00;0.00;;;;;;;;5037804;28;8800;-80
2021/12/28 08:56:15;;;;;;;;;0.00;0.00;;;;;;;;5050903;27;8792;-81
2021/12/28 08:58:40;;;;;;;;;0.00;0.00;;;;;;;;5050885;28;8812;-81
2021/12/28 09:01:06;;;;;;;;;1.50;1.50;;;;;;;;5050958;27;8828;-80
2021/12/28 09:03:32;;;;;;;;;0.00;0.00;;;;;;;;5050868;28;8904;-78
2021/12/28 09:05:57;;;;;;;;;0.00;0.00;;;;;;;;5050040;27;8784;-80
2021/12/28 09:08:22;;;;;;;;;0.00;0.00;;;;;;;;5050209;28;8909;-80
2021/12/28 09:10:49;;;;;;;;;0.00;0.00;;;;;;;;5050534;27;9562;-80
2021/12/28 09:13:15;;;;;;;;;0.00;0.00;;;;;;;;5049522;28;8812;-80
2021/12/28 09:15:41;;;;;;;;;0.00;0.00;;;;;;;;5050623;28;8792;-80
2021/12/28 09:18:07;;;;;;;;;0.00;0.00;;;;;;;;5049610;27;8812;-80
2021/12/28 09:20:32;;;;;;;;;0.00;0.00;;;;;;;;5050460;28;8834;-80
2021/12/28 09:22:57;;;;;;;;;0.00;0.00;;;;;;;;5050443;28;8808;-80
2021/12/28 09:25:23;;;;;;;;;0.00;0.00;;;;;;;;5049329;27;8844;-80
2021/12/28 09:27:49;;;;;;;;;0.00;0.00;;;;;;;;5050234;28;8796;-80
2021/12/28 09:30:15;;;;;;;;;0.00;0.00;;;;;;;;5050693;27;8840;-80
2021/12/28 09:32:40;;;;;;;;;0.00;0.00;;;;;;;;5050246;28;8796;-80
2021/12/28 09:35:06;;;;;;;;;0.00;0.00;;;;;;;;5048855;27;8812;-80
2021/12/28 09:37:35;;;;;;;;;0.00;0.00;;;;;;;;5050474;27;8788;-80
2021/12/28 09:40:01;;;;;;;;;0.00;0.00;;;;;;;;5048770;28;8828;-80
2021/12/28 09:42:27;;;;;;;;;0.00;0.00;;;;;;;;5050135;27;8796;-80
2021/12/28 09:44:52;;;;;;;;;0.00;0.00;;;;;;;;5069232;27;8815;-80
2021/12/28 09:47:18;;;;;;;;;0.00;0.00;;;;;;;;5048830;27;8897;-80
2021/12/28 09:49:44;;;;;;;;;0.00;0.00;;;;;;;;5050737;27;8832;-79
2021/12/28 09:52:10;;;;;;;;;0.00;0.00;;;;;;;;5093282;27;9315;-79
2021/12/28 09:54:36;;;;;;;;;0.00;0.00;;;;;;;;5050234;28;8784;-80
2021/12/28 09:57:01;;;;;;;;;0.00;0.00;;;;;;;;5048233;27;8904;-80
2021/12/28 09:59:30;;;;;;;;;44.25;39.25;;;;;;;;5050215;28;8816;-80
2021/12/28 10:01:56;;;;;;;;;14.25;14.25;;;;;;;;5049583;27;8822;-79
2021/12/28 10:04:22;;;;;;;;;95.20;94.60;;;;;;;;5049827;28;8745;-80
2021/12/28 10:06:47;;;;;;;;;68.50;57.50;;;;;;;;5049623;27;9614;-80
2021/12/28 10:09:15;;;;;;;;;68.33;57.00;;;;;;;;5049618;27;8804;-80
2021/12/28 10:11:44;;;;;;;;;0.00;0.00;;;;;;;;5053085;27;8740;-80
2021/12/28 10:14:15;;;;;;;;;0.00;0.00;;;;;;;;5049594;28;8772;-80
2021/12/28 10:16:45;;;;;;;;;25.75;25.75;;;;;;;;5049717;28;8773;-80
2021/12/28 10:19:29;;;;;;;;;103.75;103.75;;;;;;;;5049960;27;8837;-80
2021/12/28 10:21:54;;;;;;;;;0.00;0.00;;;;;;;;5051088;27;8828;-80
2021/12/28 10:24:35;;;;;;;;;0.00;0.00;;;;;;;;5052900;28;8912;-80
2021/12/28 10:27:27;;;;;;;;;0.00;0.00;;;;;;;;5052606;27;8792;-80
2021/12/28 10:29:53;;;;;;;;;101.25;100.25;;;;;;;;5055094;27;8788;-80
2021/12/28 10:32:21;;;;;;;;;65.75;54.75;;;;;;;;5052621;28;8861;-80
2021/12/28 10:34:47;;;;;;;;;75.00;65.40;;;;;;;;5052014;27;11550;-80
2021/12/28 10:37:14;;;;;;;;;66.75;55.75;;;;;;;;5052359;28;8772;-81
2021/12/28 10:39:46;;;;;;;;;0.00;0.00;;;;;;;;5052573;27;11475;-81
2021/12/28 10:42:31;;;;;;;;;92.40;89.40;;;;;;;;5050732;27;8850;-80
2021/12/28 10:44:57;;;;;;;;;30.25;30.25;;;;;;;;5072059;27;8788;-80
2021/12/28 10:47:23;;;;;;;;;57.25;49.00;;;;;;;;5051055;28;8800;-80
2021/12/28 10:49:48;;;;;;;;;66.00;55.00;;;;;;;;5052087;28;11444;-80
2021/12/28 10:52:26;;;;;;;;;114.00;114.00;;;;;;;;5092691;27;9979;-80
2021/12/28 10:54:51;;;;;;;;;30.75;29.25;;;;;;;;5050769;27;8788;-80
2021/12/28 10:57:16;;;;;;;;;7.00;7.00;;;;;;;;5050775;28;8872;-80
2021/12/28 10:59:42;;;;;;;;;39.25;36.75;;;;;;;;5052207;27;8792;-79
2021/12/28 11:02:07;;;;;;;;;0.00;0.00;;;;;;;;5052392;28;8843;-81
2021/12/28 11:04:36;;;;;;;;;0.00;0.00;;;;;;;;5050530;27;8832;-81
2021/12/28 11:07:06;;;;;;;;;74.20;66.60;;;;;;;;5051912;27;8943;-80
2021/12/28 11:09:31;;;;;;;;;0.00;0.00;;;;;;;;5052109;27;8893;-80
2021/12/28 11:11:58;;;;;;;;;0.00;0.00;;;;;;;;5052431;28;8824;-81
2021/12/28 11:14:24;;;;;;;;;0.00;0.00;;;;;;;;5052187;27;8801;-81
2021/12/28 11:16:51;;;;;;;;;0.00;0.00;;;;;;;;5052434;28;8808;-80
2021/12/28 11:19:22;;;;;;;;;0.00;0.00;;;;;;;;5050238;27;8796;-81
2021/12/28 11:21:52;;;;;;;;;0.00;0.00;;;;;;;;5052203;27;8831;-81
2021/12/28 11:24:17;;;;;;;;;3.00;3.00;;;;;;;;5051841;28;8812;-81
2021/12/28 11:26:44;;;;;;;;;0.00;0.00;;;;;;;;5052142;28;8886;-80
2021/12/28 11:29:13;;;;;;;;;71.40;62.80;;;;;;;;5051819;27;8854;-80
2021/12/28 11:31:40;;;;;;;;;0.00;0.00;;;;;;;;5052018;28;8824;-81
2021/12/28 11:34:07;;;;;;;;;114.80;113.00;;;;;;;;5051285;27;8757;-80
2021/12/28 11:36:34;;;;;;;;;0.00;0.00;;;;;;;;5051790;28;8768;-81
2021/12/28 11:39:00;;;;;;;;;108.50;108.50;;;;;;;;5051520;27;8768;-80
2021/12/28 11:41:26;;;;;;;;;104.50;101.75;;;;;;;;5051436;27;8831;-81
2021/12/28 11:43:52;;;;;;;;;99.75;99.25;;;;;;;;5067031;27;8804;-80
2021/12/28 11:46:18;;;;;;;;;95.00;91.00;;;;;;;;5051638;27;8800;-81
2021/12/28 11:48:44;;;;;;;;;95.00;94.75;;;;;;;;5050115;28;8816;-80
2021/12/28 11:51:10;;;;;;;;;100.20;98.40;;;;;;;;5077535;27;8799;-81
2021/12/28 11:53:37;;;;;;;;;96.25;92.50;;;;;;;;5060817;27;9512;-80
2021/12/28 11:56:03;;;;;;;;;101.20;99.80;;;;;;;;5051364;27;8737;-81
2021/12/28 11:58:46;;;;;;;;;103.50;102.00;;;;;;;;5051187;28;8834;-80
2021/12/28 12:01:32;;;;;;;;;101.00;98.25;;;;;;;;5051278;27;8847;-80
2021/12/28 12:03:57;;;;;;;;;102.60;98.60;;;;;;;;5050927;27;8900;-80
2021/12/28 12:06:42;;;;;;;;;104.25;102.25;;;;;;;;5050685;28;8784;-80
2021/12/28 12:09:07;;;;;;;;;104.20;103.80;;;;;;;;5051385;28;8728;-81
2021/12/28 12:11:33;;;;;;;;;99.00;97.00;;;;;;;;5049757;28;8850;-79
2021/12/28 12:13:58;;;;;;;;;108.00;107.25;;;;;;;;5063530;27;8801;-80
2021/12/28 12:16:23;;;;;;;;;118.25;116.25;;;;;;;;5069862;28;9005;-80
2021/12/28 12:18:49;;;;;;;;;116.25;115.00;;;;;;;;5070841;27;11546;-79
2021/12/28 12:21:18;;;;;;;;;105.40;103.60;;;;;;;;5070739;28;8813;-78
2021/12/28 12:23:51;;;;;;;;;109.60;106.80;;;;;;;;5069514;27;8898;-80
2021/12/28 12:26:29;;;;;;;;;118.25;117.75;;;;;;;;5071173;28;8785;-80
2021/12/28 12:28:54;;;;;;;;;123.50;121.75;;;;;;;;5070924;28;8793;-80
2021/12/28 12:31:24;;;;;;;;;112.40;110.40;;;;;;;;5071107;28;9571;-80
2021/12/28 12:33:49;;;;;;;;;129.80;127.00;;;;;;;;5070515;27;8781;-80
2021/12/28 12:36:20;;;;;;;;;115.00;114.00;;;;;;;;5070704;27;8844;-80
2021/12/28 12:38:45;;;;;;;;;115.20;112.40;;;;;;;;5068950;27;8913;-81
2021/12/28 12:41:19;;;;;;;;;103.00;102.40;;;;;;;;5069928;27;8893;-81
2021/12/28 12:43:53;;;;;;;;;109.50;106.67;;;;;;;;5078330;27;8804;-81
2021/12/28 12:46:18;;;;;;;;;115.40;111.80;;;;;;;;5049221;28;8800;-80
2021/12/28 12:48:44;;;;;;;;;111.50;110.75;;;;;;;;5048931;27;8847;-81
2021/12/28 12:51:24;;;;;;;;;110.00;109.25;;;;;;;;5076471;27;8829;-79
2021/12/28 12:53:54;;;;;;;;;108.75;108.75;;;;;;;;5036805;28;8812;-80
2021/12/28 12:56:21;;;;;;;;;110.20;106.80;;;;;;;;5050648;28;8915;-81
2021/12/28 12:58:48;;;;;;;;;110.20;108.60;;;;;;;;5050422;27;8823;-81
2021/12/28 13:01:22;;;;;;;;;120.80;116.80;;;;;;;;5050539;28;8815;-80
2021/12/28 13:03:48;;;;;;;;;107.40;106.60;;;;;;;;5050405;27;9981;-81
2021/12/28 13:06:13;;;;;;;;;122.75;121.25;;;;;;;;5049803;27;8796;-81
2021/12/28 13:08:38;;;;;;;;;113.67;112.33;;;;;;;;5048885;27;8931;-81
2021/12/28 13:11:04;;;;;;;;;108.67;108.67;;;;;;;;5050550;28;8866;-81
2021/12/28 13:13:30;;;;;;;;;115.00;114.50;;;;;;;;5050245;27;8826;-81
2021/12/28 13:15:55;;;;;;;;;111.00;109.00;;;;;;;;5050388;28;8795;-81
2021/12/28 13:18:20;;;;;;;;;113.50;111.25;;;;;;;;5050314;27;8942;-81
2021/12/28 13:20:47;;;;;;;;;81.67;74.33;;;;;;;;5049831;28;8804;-81
2021/12/28 13:23:13;;;;;;;;;36.50;33.50;;;;;;;;5050594;27;8772;-81
2021/12/28 13:25:45;;;;;;;;;110.60;107.20;;;;;;;;5050053;28;8884;-81
2021/12/28 13:28:11;;;;;;;;;106.40;101.00;;;;;;;;5050356;27;9718;-81
2021/12/28 13:30:39;;;;;;;;;108.20;108.00;;;;;;;;5050022;28;8872;-81
2021/12/28 13:33:06;;;;;;;;;108.40;103.60;;;;;;;;5050169;27;8792;-81
2021/12/28 13:35:32;;;;;;;;;113.40;108.00;;;;;;;;5049471;28;8807;-81
2021/12/28 13:38:06;;;;;;;;;114.25;109.50;;;;;;;;5050076;27;8904;-81
2021/12/28 13:40:36;;;;;;;;;106.25;105.25;;;;;;;;5049927;28;8788;-80
2021/12/28 13:43:02;;;;;;;;;112.00;109.80;;;;;;;;5054778;27;8852;-80
2021/12/28 13:45:41;;;;;;;;;62.25;52.00;;;;;;;;5064437;27;9084;-82
2021/12/28 13:48:11;;;;;;;;;0.75;0.75;;;;;;;;5050252;28;8898;-82
2021/12/28 13:50:37;;;;;;;;;47.40;42.20;;;;;;;;5051969;27;8912;-80
2021/12/28 13:53:03;;;;;;;;;82.25;75.25;;;;;;;;5091664;27;8812;-80
2021/12/28 13:55:30;;;;;;;;;103.60;102.80;;;;;;;;5052589;28;10975;-80
2021/12/28 13:57:56;;;;;;;;;127.40;126.40;;;;;;;;5052660;27;8772;-79
2021/12/28 14:00:23;;;;;;;;;109.67;108.33;;;;;;;;5052638;28;8830;-79
2021/12/28 14:02:56;;;;;;;;;103.00;103.00;;;;;;;;5051802;27;10604;-80
2021/12/28 14:05:22;;;;;;;;;111.60;110.00;;;;;;;;5052076;27;11539;-80
2021/12/28 14:07:48;;;;;;;;;96.00;95.50;;;;;;;;5052619;27;8812;-80
2021/12/28 14:10:13;;;;;;;;;108.25;103.25;;;;;;;;5051222;27;11653;-79
2021/12/28 14:12:38;;;;;;;;;99.25;96.75;;;;;;;;5052714;28;8843;-80
2021/12/28 14:15:04;;;;;;;;;105.25;102.25;;;;;;;;5052824;27;8831;-80
2021/12/28 14:17:29;;;;;;;;;103.75;102.25;;;;;;;;5052316;27;8863;-79
2021/12/28 14:19:59;;;;;;;;;98.00;97.75;;;;;;;;5052127;27;8819;-80
2021/12/28 14:22:25;;;;;;;;;86.60;79.20;;;;;;;;5052296;28;8815;-80
2021/12/28 14:24:52;;;;;;;;;83.50;74.75;;;;;;;;5052460;27;8769;-79
2021/12/28 14:27:23;;;;;;;;;82.20;72.60;;;;;;;;5052155;27;8868;-79
2021/12/28 14:29:58;;;;;;;;;85.40;77.60;;;;;;;;5052195;27;8792;-80
2021/12/28 14:32:31;;;;;;;;;108.75;106.25;;;;;;;;5052052;27;8867;-80
2021/12/28 14:35:00;;;;;;;;;100.60;100.00;;;;;;;;5051767;27;8871;-79
2021/12/28 14:37:25;;;;;;;;;102.20;98.60;;;;;;;;5052356;28;8744;-77
2021/12/28 14:39:52;;;;;;;;;121.20;119.80;;;;;;;;5051944;27;8850;-76
2021/12/28 14:42:22;;;;;;;;;116.75;115.25;;;;;;;;5050534;28;8875;-80
2021/12/28 14:44:57;;;;;;;;;99.80;97.80;;;;;;;;5067238;27;8781;-79
2021/12/28 14:47:26;;;;;;;;;139.40;137.20;;;;;;;;5051961;28;8826;-79